createdAt,value
2023-03-25T00:01:19.569Z,4.72
2023-03-25T00:03:46.804Z,5.20
2023-03-25T00:06:16.565Z,5.55
2023-03-25T00:08:43.658Z,5.55
2023-03-25T00:11:11.682Z,5.80
2023-03-25T00:13:40.441Z,6.60
2023-03-25T00:16:10.213Z,6.10
2023-03-25T00:18:37.803Z,6.88
2023-03-25T00:21:10.819Z,6.00
2023-03-25T00:23:39.567Z,6.65
2023-03-25T00:26:07.677Z,6.18
2023-03-25T00:28:38.174Z,6.30
2023-03-25T00:31:08.945Z,6.68
2023-03-25T00:33:36.092Z,7.70
2023-03-25T00:36:04.567Z,7.28
2023-03-25T00:38:35.005Z,7.30
2023-03-25T00:41:23.206Z,7.28
2023-03-25T00:43:52.457Z,7.07
2023-03-25T00:46:22.887Z,7.35
2023-03-25T00:48:51.465Z,6.88
2023-03-25T00:51:21.805Z,6.57
2023-03-25T00:53:53.303Z,5.88
2023-03-25T00:56:21.965Z,5.72
2023-03-25T00:58:49.482Z,6.20
2023-03-25T01:01:27.295Z,7.40
2023-03-25T01:03:59.919Z,5.97
2023-03-25T01:06:32.625Z,6.50
2023-03-25T01:09:01.495Z,6.22
2023-03-25T01:11:34.757Z,7.70
2023-03-25T01:14:03.857Z,7.93
2023-03-25T01:16:31.432Z,8.15
2023-03-25T01:18:58.474Z,9.63
2023-03-25T01:21:26.291Z,9.38
2023-03-25T01:23:53.351Z,9.55
2023-03-25T01:26:20.897Z,9.68
2023-03-25T01:28:47.894Z,9.82
2023-03-25T01:31:16.376Z,9.88
2023-03-25T01:33:43.380Z,9.07
2023-03-25T01:36:13.025Z,9.38
2023-03-25T01:38:41.482Z,9.55
2023-03-25T01:41:10.305Z,9.57
2023-03-25T01:43:37.422Z,9.18
2023-03-25T01:46:05.063Z,9.63
2023-03-25T01:48:37.109Z,9.38
2023-03-25T01:51:12.621Z,9.98
2023-03-25T01:53:40.452Z,10.13
2023-03-25T01:56:13.523Z,11.60
2023-03-25T01:58:41.453Z,13.15
2023-03-25T02:01:13.795Z,13.32
2023-03-25T02:03:46.223Z,13.40
2023-03-25T02:06:39.649Z,12.23
2023-03-25T02:09:09.106Z,13.27
2023-03-25T02:11:36.460Z,12.38
2023-03-25T02:14:14.384Z,11.75
2023-03-25T02:16:57.180Z,11.93
2023-03-25T02:20:05.922Z,10.10
2023-03-25T02:23:10.806Z,11.27
2023-03-25T02:25:58.142Z,10.65
2023-03-25T02:28:48.532Z,10.35
2023-03-25T02:31:18.709Z,11.30
2023-03-25T02:34:04.268Z,10.20
2023-03-25T02:36:45.750Z,10.75
2023-03-25T02:39:47.219Z,12.23
2023-03-25T02:42:31.740Z,10.85
2023-03-25T02:45:08.552Z,11.55
2023-03-25T02:47:42.070Z,11.38
2023-03-25T02:50:22.039Z,12.57
2023-03-25T02:53:00.303Z,11.82
2023-03-25T02:55:33.492Z,13.10
2023-03-25T02:58:04.777Z,13.07
2023-03-25T03:00:32.805Z,12.20
2023-03-25T03:03:04.837Z,13.07
2023-03-25T03:05:34.968Z,14.55
2023-03-25T03:08:20.502Z,13.77
2023-03-25T03:11:10.921Z,13.45
2023-03-25T03:13:52.864Z,12.57
2023-03-25T03:17:00.804Z,12.98
2023-03-25T03:19:39.425Z,13.70
2023-03-25T03:22:14.366Z,13.80
2023-03-25T03:25:18.200Z,13.65
2023-03-25T03:28:22.627Z,12.95
2023-03-25T03:31:15.514Z,16.33
2023-03-25T03:34:14.854Z,18.65
2023-03-25T03:36:47.237Z,18.23
2023-03-25T03:39:21.624Z,18.50
2023-03-25T03:41:52.966Z,17.40
2023-03-25T03:44:25.830Z,15.60
2023-03-25T03:46:59.197Z,15.63
2023-03-25T03:49:34.140Z,14.52
2023-03-25T03:52:12.125Z,14.77
2023-03-25T03:54:56.830Z,14.60
2023-03-25T03:57:47.451Z,14.52
2023-03-25T04:00:25.894Z,14.50
2023-03-25T04:03:05.237Z,14.10
2023-03-25T04:05:35.111Z,15.40
2023-03-25T04:08:11.953Z,14.93
2023-03-25T04:10:53.368Z,14.93
2023-03-25T04:13:22.696Z,15.30
2023-03-25T04:15:50.388Z,16.05
2023-03-25T04:18:17.809Z,16.35
2023-03-25T04:20:49.693Z,17.50
2023-03-25T04:23:17.454Z,17.05
2023-03-25T04:25:50.169Z,19.15
2023-03-25T04:28:17.869Z,18.05
2023-03-25T04:30:46.754Z,17.30
2023-03-25T04:33:14.729Z,18.77
2023-03-25T04:35:42.163Z,18.23
2023-03-25T04:38:09.589Z,18.42
2023-03-25T04:40:40.658Z,18.20
2023-03-25T04:43:08.275Z,17.77
2023-03-25T04:45:36.527Z,18.83
2023-03-25T04:48:06.028Z,19.70
2023-03-25T04:50:34.172Z,19.20
2023-03-25T04:53:01.217Z,21.55
2023-03-25T04:55:29.969Z,21.40
2023-03-25T04:57:57.031Z,20.88
2023-03-25T05:00:25.698Z,21.00
2023-03-25T05:02:56.360Z,20.52
2023-03-25T05:05:25.409Z,22.00
2023-03-25T05:07:54.986Z,22.23
2023-03-25T05:10:24.924Z,23.50
2023-03-25T05:12:59.622Z,26.15
2023-03-25T05:15:27.061Z,29.17
2023-03-25T05:17:54.149Z,26.45
2023-03-25T05:20:22.660Z,26.20
2023-03-25T05:22:49.767Z,25.90
2023-03-25T05:25:18.336Z,27.02
2023-03-25T05:27:46.694Z,26.98
2023-03-25T05:30:16.027Z,24.58
2023-03-25T05:32:45.855Z,21.45
2023-03-25T05:35:13.449Z,22.75
2023-03-25T05:37:40.578Z,22.17
2023-03-25T05:40:15.222Z,22.45
2023-03-25T05:42:49.096Z,24.25
2023-03-25T05:45:17.020Z,22.90
2023-03-25T05:47:44.575Z,23.80
2023-03-25T05:50:12.128Z,23.63
2023-03-25T05:52:41.774Z,25.13
2023-03-25T05:55:16.259Z,21.77
2023-03-25T05:57:44.212Z,23.02
2023-03-25T06:00:13.127Z,22.02
2023-03-25T06:02:43.331Z,21.88
2023-03-25T06:05:14.123Z,21.98
2023-03-25T06:07:49.828Z,21.42
2023-03-25T06:10:18.312Z,22.60
2023-03-25T06:12:47.511Z,23.25
2023-03-25T06:15:29.030Z,22.00
2023-03-25T06:17:57.207Z,22.75
2023-03-25T06:20:24.726Z,23.02
2023-03-25T06:22:51.754Z,21.52
2023-03-25T06:25:23.640Z,22.50
2023-03-25T06:27:51.432Z,22.13
2023-03-25T06:30:20.812Z,22.88
2023-03-25T06:32:52.646Z,23.55
2023-03-25T06:35:20.662Z,23.30
2023-03-25T06:37:48.827Z,22.65
2023-03-25T06:40:25.920Z,25.90
2023-03-25T06:42:53.665Z,23.50
2023-03-25T06:45:51.939Z,25.55
2023-03-25T06:48:27.728Z,25.52
2023-03-25T06:50:55.403Z,26.73
2023-03-25T06:53:22.608Z,24.10
2023-03-25T06:55:50.403Z,25.85
2023-03-25T06:58:17.729Z,26.90
2023-03-25T07:00:46.902Z,26.45
2023-03-25T07:03:13.950Z,25.67
2023-03-25T07:05:43.290Z,25.00
2023-03-25T07:08:10.454Z,25.38
2023-03-25T07:10:37.780Z,25.27
2023-03-25T07:13:04.909Z,24.70
2023-03-25T07:15:32.268Z,24.33
2023-03-25T07:17:59.377Z,24.55
2023-03-25T07:20:26.825Z,25.33
2023-03-25T07:22:55.415Z,25.52
2023-03-25T07:25:23.095Z,22.95
2023-03-25T07:27:50.534Z,24.42
2023-03-25T07:30:19.603Z,25.65
2023-03-25T07:32:46.802Z,25.95
2023-03-25T07:35:14.138Z,25.08
2023-03-25T07:37:41.251Z,24.42
2023-03-25T07:40:09.224Z,22.77
2023-03-25T07:42:38.038Z,24.27
2023-03-25T07:45:22.525Z,23.92
2023-03-25T07:47:53.227Z,24.42
2023-03-25T07:50:25.194Z,23.35
2023-03-25T07:52:53.889Z,24.23
2023-03-25T07:55:21.440Z,24.45
2023-03-25T07:57:48.494Z,24.00
2023-03-25T08:00:15.918Z,24.50
2023-03-25T08:02:43.543Z,24.48
2023-03-25T08:05:10.989Z,23.83
2023-03-25T08:07:37.979Z,22.70
2023-03-25T08:10:05.797Z,22.45
2023-03-25T08:12:32.867Z,22.30
2023-03-25T08:15:00.393Z,22.48
2023-03-25T08:17:27.510Z,22.83
2023-03-25T08:19:54.887Z,22.10
2023-03-25T08:22:22.015Z,20.45
2023-03-25T08:24:49.335Z,19.65
2023-03-25T08:27:16.841Z,19.05
2023-03-25T08:29:47.073Z,21.55
2023-03-25T08:32:14.239Z,19.10
2023-03-25T08:34:41.628Z,19.17
2023-03-25T08:37:10.075Z,19.52
2023-03-25T08:39:40.207Z,18.52
2023-03-25T08:42:08.608Z,18.67
2023-03-25T08:44:36.879Z,18.00
2023-03-25T08:47:04.317Z,17.50
2023-03-25T08:49:31.732Z,17.88
2023-03-25T08:52:00.291Z,18.17
2023-03-25T08:54:29.242Z,17.15
2023-03-25T08:56:56.697Z,18.00
2023-03-25T08:59:23.974Z,18.42
2023-03-25T09:01:51.280Z,17.88
2023-03-25T09:04:19.311Z,16.92
2023-03-25T09:06:47.668Z,18.55
2023-03-25T09:09:17.031Z,16.08
2023-03-25T09:11:44.683Z,17.60
2023-03-25T09:14:12.225Z,18.08
2023-03-25T09:16:39.482Z,15.30
2023-03-25T09:19:06.850Z,18.23
2023-03-25T09:21:33.921Z,16.25
2023-03-25T09:24:01.367Z,17.38
2023-03-25T09:26:28.482Z,16.92
2023-03-25T09:28:56.398Z,18.33
2023-03-25T09:31:24.084Z,17.35
2023-03-25T09:33:52.169Z,15.60
2023-03-25T09:36:19.192Z,15.93
2023-03-25T09:38:46.843Z,15.20
2023-03-25T09:41:40.296Z,14.10
2023-03-25T09:44:13.365Z,14.90
2023-03-25T09:46:40.946Z,15.27
2023-03-25T09:49:19.820Z,15.13
2023-03-25T09:51:49.612Z,15.02
2023-03-25T09:54:34.070Z,13.68
2023-03-25T09:57:08.868Z,14.40
2023-03-25T09:59:49.612Z,14.95
2023-03-25T10:02:34.662Z,14.48
2023-03-25T10:05:18.627Z,12.90
2023-03-25T10:07:55.402Z,13.98
2023-03-25T10:11:01.385Z,13.93
2023-03-25T10:13:43.646Z,14.27
2023-03-25T10:16:37.836Z,13.82
2023-03-25T10:19:35.891Z,12.65
2023-03-25T10:22:07.560Z,12.20
2023-03-25T10:25:04.809Z,13.20
2023-03-25T10:27:41.622Z,12.13
2023-03-25T10:30:25.645Z,12.88
2023-03-25T10:32:59.739Z,11.70
2023-03-25T10:35:32.586Z,11.48
2023-03-25T10:38:26.361Z,11.82
2023-03-25T10:41:22.810Z,10.88
2023-03-25T10:43:51.118Z,10.48
2023-03-25T10:46:21.163Z,9.82
2023-03-25T10:48:49.818Z,9.38
2023-03-25T10:51:21.017Z,9.45
2023-03-25T10:53:52.949Z,8.70
2023-03-25T10:56:26.772Z,8.95
2023-03-25T10:58:56.742Z,8.80
2023-03-25T11:01:42.726Z,8.57
2023-03-25T11:04:16.051Z,8.70
2023-03-25T11:06:50.970Z,9.73
2023-03-25T11:09:30.622Z,9.45
2023-03-25T11:12:02.563Z,9.20
2023-03-25T11:14:30.945Z,8.57
2023-03-25T11:17:05.735Z,8.52
2023-03-25T11:20:11.102Z,8.93
2023-03-25T11:22:44.977Z,7.90
2023-03-25T11:25:21.351Z,7.80
2023-03-25T11:27:58.274Z,8.03
2023-03-25T11:30:26.737Z,8.20
2023-03-25T11:33:05.096Z,8.68
2023-03-25T11:35:38.031Z,8.38
2023-03-25T11:38:23.491Z,8.52
2023-03-25T11:40:55.163Z,8.27
2023-03-25T11:43:25.182Z,10.60
2023-03-25T11:45:53.908Z,8.85
2023-03-25T11:48:23.961Z,8.30
2023-03-25T11:51:03.390Z,7.90
2023-03-25T11:53:33.191Z,7.70
2023-03-25T11:56:20.663Z,8.40
2023-03-25T11:58:48.581Z,9.57
2023-03-25T12:01:37.793Z,6.72
2023-03-25T12:04:20.997Z,7.95
2023-03-25T12:07:08.557Z,6.78
2023-03-25T12:09:36.665Z,6.32
2023-03-25T12:12:07.206Z,7.68
2023-03-25T12:14:40.323Z,5.47
2023-03-25T12:17:38.412Z,6.20
2023-03-25T12:22:45.220Z,6.13
2023-03-25T12:25:33.880Z,6.60
2023-03-25T12:28:22.204Z,5.82
2023-03-25T12:30:58.665Z,4.20
2023-03-25T12:36:14.435Z,4.72
2023-03-25T12:38:59.063Z,4.90
2023-03-25T12:41:39.327Z,4.75
2023-03-25T12:44:21.838Z,3.95
2023-03-25T12:46:58.692Z,5.18
2023-03-25T12:49:50.795Z,4.35
2023-03-25T12:52:20.768Z,6.20
2023-03-25T12:55:14.056Z,5.53
2023-03-25T12:57:49.714Z,4.65
2023-03-25T13:00:25.578Z,4.80
2023-03-25T13:03:20.409Z,4.65
2023-03-25T13:05:59.698Z,4.97
2023-03-25T13:08:50.422Z,4.82
2023-03-25T13:11:23.699Z,6.43
2023-03-25T13:13:57.070Z,6.00
2023-03-25T13:16:27.942Z,6.43
2023-03-25T13:19:03.689Z,5.30
2023-03-25T13:21:38.113Z,6.10
2023-03-25T13:24:14.863Z,6.40
2023-03-25T13:26:45.788Z,5.97
2023-03-25T13:29:34.463Z,6.18
2023-03-25T13:32:07.108Z,5.57
2023-03-25T13:34:54.845Z,5.75
2023-03-25T13:37:41.149Z,4.60
2023-03-25T13:40:12.042Z,4.18
2023-03-25T13:43:13.362Z,5.00
2023-03-25T13:46:05.223Z,4.00
2023-03-25T13:48:44.678Z,3.20
2023-03-25T13:51:11.896Z,3.50
2023-03-25T13:53:51.799Z,4.55
2023-03-25T13:56:27.895Z,4.32
2023-03-25T13:59:36.916Z,4.00
2023-03-25T14:02:34.831Z,3.63
2023-03-25T14:05:20.951Z,4.05
2023-03-25T14:08:14.404Z,4.65
2023-03-25T14:11:12.716Z,3.17
2023-03-25T14:13:45.091Z,2.80
2023-03-25T14:16:17.602Z,4.50
2023-03-25T14:18:52.244Z,3.13
2023-03-25T14:21:41.052Z,4.15
2023-03-25T14:24:31.950Z,4.28
2023-03-25T14:27:04.732Z,6.80
2023-03-25T14:29:41.085Z,3.50
2023-03-25T14:34:52.351Z,6.57
2023-03-25T14:37:25.969Z,4.50
2023-03-25T14:40:02.448Z,4.55
2023-03-25T14:42:41.952Z,4.25
2023-03-25T14:45:32.098Z,4.38
2023-03-25T14:48:00.197Z,4.43
2023-03-25T14:50:30.185Z,5.20
2023-03-25T14:53:01.287Z,8.13
2023-03-25T14:55:56.984Z,4.70
2023-03-25T14:58:26.847Z,9.07
2023-03-25T15:01:02.671Z,5.55
2023-03-25T15:03:36.659Z,5.55
2023-03-25T15:06:04.668Z,5.85
2023-03-25T15:08:39.699Z,5.85
2023-03-25T15:11:12.027Z,5.85
2023-03-25T15:13:46.333Z,6.25
2023-03-25T15:16:27.226Z,5.50
2023-03-25T15:18:54.502Z,5.07
2023-03-25T15:21:24.595Z,5.47
2023-03-25T15:24:07.021Z,5.97
2023-03-25T15:26:42.823Z,5.55
2023-03-25T15:29:28.884Z,4.87
2023-03-25T15:32:21.659Z,6.25
2023-03-25T15:35:04.983Z,6.65
2023-03-25T15:38:01.910Z,6.38
2023-03-25T15:40:41.217Z,9.10
2023-03-25T15:43:26.729Z,7.05
2023-03-25T15:46:18.883Z,7.47
2023-03-25T15:49:32.687Z,7.13
2023-03-25T15:52:24.167Z,7.60
2023-03-25T15:55:07.135Z,9.85
2023-03-25T15:57:47.221Z,6.80
2023-03-25T16:00:26.608Z,9.18
2023-03-25T16:03:06.056Z,6.53
2023-03-25T16:05:37.296Z,6.38
2023-03-25T16:08:16.741Z,3.70
2023-03-25T16:10:46.236Z,2.30
2023-03-25T16:13:24.126Z,2.97
2023-03-25T16:15:57.329Z,3.08
2023-03-25T16:18:25.853Z,3.78
2023-03-25T16:21:00.133Z,2.90
2023-03-25T16:23:29.485Z,3.17
2023-03-25T16:25:56.925Z,3.90
2023-03-25T16:28:31.584Z,3.75
2023-03-25T16:30:58.973Z,3.60
2023-03-25T16:33:31.647Z,3.28
2023-03-25T16:36:02.325Z,3.20
2023-03-25T16:38:31.744Z,3.35
2023-03-25T16:41:13.943Z,3.63
2023-03-25T16:43:42.440Z,3.45
2023-03-25T16:46:11.871Z,4.65
2023-03-25T16:48:48.834Z,12.45
2023-03-25T16:51:21.200Z,15.57
2023-03-25T16:53:59.252Z,14.43
2023-03-25T16:56:31.609Z,11.27
2023-03-25T16:59:06.420Z,6.90
2023-03-25T17:01:38.473Z,5.93
2023-03-25T17:04:16.976Z,6.95
2023-03-25T17:06:47.120Z,7.47
2023-03-25T17:09:23.184Z,9.75
2023-03-25T17:11:56.766Z,8.85
2023-03-25T17:14:37.051Z,12.85
2023-03-25T17:17:27.581Z,15.32
2023-03-25T17:19:55.886Z,15.45
2023-03-25T17:22:39.810Z,18.40
2023-03-25T17:25:16.271Z,20.38
2023-03-25T17:27:43.724Z,23.05
2023-03-25T17:30:29.051Z,21.77
2023-03-25T17:33:34.003Z,21.98
2023-03-25T17:36:03.699Z,21.02
2023-03-25T17:38:53.481Z,18.00
2023-03-25T17:41:21.731Z,18.67
2023-03-25T17:43:55.049Z,19.65
2023-03-25T17:46:24.900Z,16.20
2023-03-25T17:48:53.577Z,15.50
2023-03-25T17:51:21.619Z,13.25
2023-03-25T17:53:49.506Z,14.90
2023-03-25T17:56:24.350Z,15.88
2023-03-25T17:59:03.104Z,16.23
2023-03-25T18:01:31.413Z,21.48
2023-03-25T18:03:58.624Z,25.15
2023-03-25T18:06:25.998Z,28.75
2023-03-25T18:08:53.209Z,27.08
2023-03-25T18:11:20.814Z,19.52
2023-03-25T18:13:48.291Z,17.80
2023-03-25T18:16:18.058Z,24.08
2023-03-25T18:18:45.866Z,23.13
2023-03-25T18:21:15.680Z,17.83
2023-03-25T18:23:47.614Z,18.80
2023-03-25T18:26:18.210Z,16.92
2023-03-25T18:28:46.659Z,14.88
2023-03-25T18:31:18.375Z,14.50
2023-03-25T18:33:48.361Z,15.05
2023-03-25T18:36:16.194Z,16.98
2023-03-25T18:38:43.956Z,17.02
2023-03-25T18:41:14.384Z,19.25
2023-03-25T18:43:42.373Z,17.70
2023-03-25T18:46:14.249Z,19.52
2023-03-25T18:48:41.763Z,16.98
2023-03-25T18:51:13.771Z,17.90
2023-03-25T18:53:41.196Z,21.35
2023-03-25T18:56:11.215Z,23.90
2023-03-25T18:58:38.397Z,16.95
2023-03-25T19:01:09.912Z,15.77
2023-03-25T19:03:40.116Z,15.25
2023-03-25T19:06:10.766Z,15.07
2023-03-25T19:08:38.036Z,21.35
2023-03-25T19:11:18.964Z,21.05
2023-03-25T19:13:48.358Z,17.15
2023-03-25T19:16:15.967Z,14.88
2023-03-25T19:18:43.139Z,18.60
2023-03-25T19:21:15.691Z,15.68
2023-03-25T19:23:43.419Z,16.63
2023-03-25T19:26:11.235Z,20.23
2023-03-25T19:28:38.410Z,23.77
2023-03-25T19:31:06.134Z,22.65
2023-03-25T19:33:33.233Z,16.73
2023-03-25T19:36:04.339Z,12.80
2023-03-25T19:38:33.032Z,13.85
2023-03-25T19:41:06.228Z,15.13
2023-03-25T19:43:33.474Z,32.35
2023-03-25T19:46:01.556Z,17.75
2023-03-25T19:48:31.698Z,14.57
2023-03-25T19:50:59.364Z,16.90
2023-03-25T19:53:27.654Z,16.17
2023-03-25T19:55:56.270Z,16.10
2023-03-25T19:58:24.694Z,16.90
2023-03-25T20:00:53.099Z,14.43
2023-03-25T20:03:24.000Z,11.95
2023-03-25T20:05:59.013Z,10.43
2023-03-25T20:08:26.889Z,11.18
2023-03-25T20:10:54.200Z,11.48
2023-03-25T20:13:22.067Z,12.23
2023-03-25T20:15:50.618Z,12.40
2023-03-25T20:18:18.167Z,14.00
2023-03-25T20:20:45.567Z,15.18
2023-03-25T20:23:12.630Z,16.77
2023-03-25T20:25:39.954Z,14.27
2023-03-25T20:28:07.065Z,11.52
2023-03-25T20:30:35.684Z,12.13
2023-03-25T20:33:03.452Z,10.77
2023-03-25T20:35:31.808Z,9.52
2023-03-25T20:37:59.409Z,15.32
2023-03-25T20:40:37.362Z,14.05
2023-03-25T20:43:13.524Z,14.98
2023-03-25T20:45:41.358Z,12.43
2023-03-25T20:48:09.004Z,8.60
2023-03-25T20:50:36.673Z,10.00
2023-03-25T20:53:04.515Z,11.80
2023-03-25T20:55:32.244Z,8.60
2023-03-25T20:57:59.340Z,11.77
2023-03-25T21:00:26.737Z,10.45
2023-03-25T21:02:54.368Z,9.35
2023-03-25T21:05:21.728Z,10.10
2023-03-25T21:07:48.844Z,10.43
2023-03-25T21:10:16.857Z,10.82
2023-03-25T21:12:44.842Z,10.10
2023-03-25T21:15:14.802Z,12.05
2023-03-25T21:17:42.476Z,12.65
2023-03-25T21:20:10.582Z,11.35
2023-03-25T21:22:42.948Z,12.05
2023-03-25T21:25:11.925Z,13.50
2023-03-25T21:27:39.847Z,13.00
2023-03-25T21:30:11.882Z,14.77
2023-03-25T21:32:39.549Z,11.88
2023-03-25T21:35:08.130Z,11.30
2023-03-25T21:37:38.876Z,13.05
2023-03-25T21:40:09.987Z,12.05
2023-03-25T21:42:41.553Z,11.05
2023-03-25T21:45:12.009Z,13.40
2023-03-25T21:47:41.423Z,11.30
2023-03-25T21:50:11.395Z,12.00
2023-03-25T21:52:43.081Z,12.00
2023-03-25T21:55:13.944Z,12.90
2023-03-25T21:57:44.515Z,12.13
2023-03-25T22:00:15.068Z,11.80
2023-03-25T22:02:43.505Z,11.88
2023-03-25T22:05:12.730Z,12.40
2023-03-25T22:07:40.770Z,11.43
2023-03-25T22:10:10.242Z,11.02
2023-03-25T22:12:37.406Z,10.13
2023-03-25T22:15:05.110Z,11.18
2023-03-25T22:17:32.133Z,10.30
2023-03-25T22:19:59.449Z,11.25
2023-03-25T22:22:26.454Z,11.77
2023-03-25T22:24:54.044Z,10.60
2023-03-25T22:27:21.211Z,10.48
2023-03-25T22:29:48.558Z,10.25
2023-03-25T22:32:15.557Z,10.60
2023-03-25T22:34:42.878Z,11.13
2023-03-25T22:37:09.999Z,11.23
2023-03-25T22:39:38.993Z,9.85
2023-03-25T22:42:06.373Z,10.00
2023-03-25T22:44:33.904Z,10.65
2023-03-25T22:47:01.086Z,9.82
2023-03-25T22:49:28.667Z,10.52
2023-03-25T22:51:55.979Z,11.50
2023-03-25T22:54:23.720Z,13.43
2023-03-25T22:56:50.836Z,12.48
2023-03-25T22:59:18.223Z,10.45
2023-03-25T23:01:45.395Z,10.88
2023-03-25T23:04:12.882Z,10.45
2023-03-25T23:06:41.749Z,11.10
2023-03-25T23:09:10.460Z,11.80
2023-03-25T23:11:38.061Z,9.70
2023-03-25T23:14:13.052Z,10.05
2023-03-25T23:16:41.884Z,10.90
2023-03-25T23:19:10.180Z,9.75
2023-03-25T23:21:38.347Z,10.43
2023-03-25T23:24:06.882Z,9.95
2023-03-25T23:26:36.996Z,10.27
2023-03-25T23:29:09.000Z,10.40
2023-03-25T23:31:37.909Z,10.15
2023-03-25T23:34:08.994Z,10.60
2023-03-25T23:36:38.340Z,9.18
2023-03-25T23:39:08.504Z,9.95
2023-03-25T23:41:36.471Z,9.65
2023-03-25T23:44:04.470Z,8.95
2023-03-25T23:46:31.853Z,10.10
2023-03-25T23:49:02.643Z,8.82
2023-03-25T23:51:33.686Z,9.77
2023-03-25T23:54:02.289Z,9.27
2023-03-25T23:56:30.133Z,8.68
2023-03-25T23:58:59.728Z,8.80
